SPJL/JUL METAR and TAF weather

Enter ICAO airport designator
Station Type Date Time Source
SPJL METAR 2022/12/04 13:00 UTC NOAA

SPJL 041300Z 24004KT CAVOK 08/M22 Q1034 RMK PP000


Station Type Date Time Source
SPJL Decoded METAR 2022/12/04 13:00 UTC NOAA

Juliaca, Peru (SPJL) 15-29S 070-09W 3827M
Dec 04, 2022 - 08:00 AM EST / 2022.12.04 1300 UTC
Wind: from the WSW (240 degrees) at 5 MPH (4 KT):0
Visibility: greater than 7 mile(s):0
Temperature: 46 F (8 C)
Dew Point: -7 F (-22 C)
Relative Humidity: 9%
Pressure (altimeter): 30.53 in. Hg (1034 hPa)
ob: SPJL 041300Z 24004KT CAVOK 08/M22 Q1034 RMK PP000
cycle: 13

Station Type Date Time Source
SPJL TAF 2022/12/04 12:18 UTC NOAA

TAF SPJL 041120Z 0412/0512 VRB03KT CAVOK TX20/0419Z TN01/0510Z
FM041800 12010KT CAVOK
FM042400 17005KT CAVOK

Example: see airport list